North Plainfield, New Jersey
Current Conditions -  °F | °C
As of 7:35 AM on Friday 24 Oct 2014 (Local Time) from KLDJ Reporting Station
Overcast Overcast  
Wind Chill: 56°   Ceiling: 2500
Heat Index: 56°   Visibility: 10mi
Dew Point: 47°   Wind: 8mph
Humidity: 74%   Direction: 330°NNW
Pressure: 29.83"   Gusts: NA
Location:  40.62°N, 74.43°W
Report Text: KLDJ 241135Z AUTO 33007KT 10SM OVC025 13/09 A2983 RMK AO2 T01310085
Loading
Personal Weather Stations






























Interactive Weather Map
Tropical Storm Tracking
New forecast layout! Learn more

10-Day Weather Forecast

Advertisements
Track Severe Weather on mobile